createdAt,value
2018-11-26T00:02:35.766Z,5.98
2018-11-26T00:07:38.364Z,6.01
2018-11-26T00:12:40.807Z,6.00
2018-11-26T00:17:43.261Z,5.96
2018-11-26T00:22:45.827Z,5.99
2018-11-26T00:27:48.237Z,5.98
2018-11-26T00:32:50.958Z,5.97
2018-11-26T00:37:53.400Z,5.96
2018-11-26T00:42:56.065Z,5.94
2018-11-26T00:47:58.470Z,5.93
2018-11-26T00:53:01.546Z,5.96
2018-11-26T00:58:03.968Z,5.96
2018-11-26T01:03:06.529Z,5.92
2018-11-26T01:08:09.967Z,5.89
2018-11-26T01:13:12.504Z,5.95
2018-11-26T01:18:15.027Z,5.91
2018-11-26T01:23:17.554Z,5.90
2018-11-26T01:28:20.003Z,5.91
2018-11-26T01:33:22.552Z,5.94
2018-11-26T01:38:24.976Z,5.92
2018-11-26T01:43:27.735Z,5.91
2018-11-26T01:48:30.180Z,5.93
2018-11-26T01:53:33.236Z,5.89
2018-11-26T01:58:35.746Z,5.85
2018-11-26T02:03:38.244Z,5.85
2018-11-26T02:08:40.715Z,5.84
2018-11-26T02:13:43.694Z,5.88
2018-11-26T02:18:46.196Z,5.85
2018-11-26T02:23:48.617Z,5.86
2018-11-26T02:28:51.083Z,5.88
2018-11-26T02:33:53.561Z,5.83
2018-11-26T02:38:56.405Z,5.82
2018-11-26T02:43:58.894Z,5.83
2018-11-26T02:49:02.062Z,5.75
2018-11-26T02:54:04.908Z,5.80
2018-11-26T02:59:07.379Z,5.76
2018-11-26T03:04:13.648Z,5.73
2018-11-26T03:09:16.151Z,5.80
2018-11-26T03:14:18.544Z,5.79
2018-11-26T03:19:20.959Z,5.80
2018-11-26T03:24:23.382Z,5.77
2018-11-26T03:29:25.785Z,5.75
2018-11-26T03:34:28.203Z,5.79
2018-11-26T03:39:30.604Z,5.75
2018-11-26T03:44:33.099Z,5.75
2018-11-26T03:49:35.541Z,5.74
2018-11-26T03:54:38.308Z,5.72
2018-11-26T03:59:40.775Z,5.70
2018-11-26T04:04:43.236Z,5.63
2018-11-26T04:09:45.894Z,5.57
2018-11-26T04:14:48.286Z,5.49
2018-11-26T04:19:50.727Z,5.44
2018-11-26T04:24:53.115Z,5.36
2018-11-26T04:29:55.566Z,5.34
2018-11-26T04:34:58.085Z,5.34
2018-11-26T04:40:00.495Z,5.34
2018-11-26T04:45:02.981Z,5.32
2018-11-26T04:50:10.864Z,5.24
2018-11-26T04:55:13.400Z,5.24
2018-11-26T05:00:22.467Z,5.23
2018-11-26T05:05:24.901Z,5.24
2018-11-26T05:10:27.353Z,5.22
2018-11-26T05:15:29.840Z,5.19
2018-11-26T05:20:32.279Z,5.12
2018-11-26T05:25:34.718Z,5.09
2018-11-26T05:30:37.265Z,4.99
2018-11-26T05:35:39.696Z,4.94
2018-11-26T05:40:42.070Z,4.89
2018-11-26T05:45:44.409Z,4.90
2018-11-26T05:50:46.781Z,4.87
2018-11-26T05:55:49.222Z,4.97
2018-11-26T06:00:51.604Z,4.88
2018-11-26T06:05:56.109Z,4.86
2018-11-26T06:10:58.972Z,4.87
2018-11-26T06:16:03.533Z,4.78
2018-11-26T06:21:06.926Z,4.77
2018-11-26T06:26:09.505Z,4.92
2018-11-26T06:31:13.855Z,4.90
2018-11-26T06:36:17.050Z,4.97
2018-11-26T06:41:21.706Z,4.94
2018-11-26T06:46:26.167Z,4.95
2018-11-26T06:51:28.630Z,5.01
2018-11-26T06:56:31.161Z,4.97
2018-11-26T07:01:33.611Z,4.94
2018-11-26T07:06:36.132Z,4.92
2018-11-26T07:11:38.624Z,5.02
2018-11-26T07:16:41.135Z,5.07
2018-11-26T07:21:43.492Z,5.12
2018-11-26T07:26:45.996Z,5.32
2018-11-26T07:31:48.428Z,5.31
2018-11-26T07:36:51.911Z,5.37
2018-11-26T07:41:54.456Z,5.50
2018-11-26T07:46:56.933Z,5.61
2018-11-26T07:51:59.377Z,5.55
2018-11-26T07:57:01.750Z,5.50
2018-11-26T08:02:04.493Z,5.55
2018-11-26T08:07:07.303Z,5.62
2018-11-26T08:12:09.731Z,5.61
2018-11-26T08:17:12.186Z,5.53
2018-11-26T08:22:14.615Z,5.58
2018-11-26T08:27:17.079Z,5.56
2018-11-26T08:32:19.581Z,5.65
2018-11-26T08:37:27.676Z,5.68
2018-11-26T08:42:35.593Z,5.75
2018-11-26T08:47:47.594Z,5.69
2018-11-26T08:52:50.210Z,5.80
2018-11-26T08:57:52.656Z,5.85
2018-11-26T09:02:55.108Z,5.95
2018-11-26T09:07:57.601Z,6.01
2018-11-26T09:13:00.093Z,6.01
2018-11-26T09:18:02.627Z,6.06
2018-11-26T09:23:06.270Z,6.18
2018-11-26T09:28:08.694Z,6.26
2018-11-26T09:33:11.400Z,6.29
2018-11-26T09:38:13.843Z,6.28
2018-11-26T09:43:16.345Z,6.35
2018-11-26T09:48:18.741Z,6.41
2018-11-26T09:53:21.194Z,6.49
2018-11-26T09:58:23.667Z,6.56
2018-11-26T10:03:26.130Z,6.67
2018-11-26T10:08:28.558Z,6.75
2018-11-26T10:13:31.039Z,6.82
2018-11-26T10:18:33.375Z,6.80
2018-11-26T10:23:35.800Z,6.82
2018-11-26T10:28:38.339Z,6.89
2018-11-26T10:33:41.065Z,6.91
2018-11-26T10:38:43.491Z,6.94
2018-11-26T10:43:47.839Z,7.09
2018-11-26T10:48:50.288Z,7.11
2018-11-26T10:53:52.692Z,7.13
2018-11-26T10:58:55.196Z,7.23
2018-11-26T11:03:57.942Z,7.37
2018-11-26T11:09:01.078Z,7.47
2018-11-26T11:14:03.671Z,7.51
2018-11-26T11:19:06.149Z,7.45
2018-11-26T11:24:08.842Z,7.39
2018-11-26T11:29:11.288Z,7.37
2018-11-26T11:34:13.715Z,7.31
2018-11-26T11:39:16.117Z,7.27
2018-11-26T11:44:23.200Z,7.25
2018-11-26T11:49:25.609Z,7.21
2018-11-26T11:54:28.080Z,7.18
2018-11-26T11:59:30.853Z,7.20
2018-11-26T12:04:33.333Z,7.10
2018-11-26T12:09:36.287Z,7.09
2018-11-26T12:14:38.914Z,7.10
2018-11-26T12:19:41.295Z,7.05
2018-11-26T12:24:43.704Z,7.08
2018-11-26T12:29:46.149Z,7.11
2018-11-26T12:34:48.672Z,7.06
2018-11-26T12:39:51.170Z,7.06
2018-11-26T12:44:53.814Z,7.06
2018-11-26T12:49:56.203Z,7.04
2018-11-26T12:54:58.586Z,7.07
2018-11-26T13:00:01.123Z,7.04
2018-11-26T13:05:04.601Z,7.03
2018-11-26T13:10:11.243Z,7.04
2018-11-26T13:15:15.823Z,7.11
2018-11-26T13:20:19.833Z,7.08
2018-11-26T13:25:23.396Z,7.03
2018-11-26T13:30:28.142Z,7.06
2018-11-26T13:35:30.649Z,7.06
2018-11-26T13:40:33.051Z,7.01
2018-11-26T13:45:37.165Z,6.99
2018-11-26T13:50:42.287Z,7.03
2018-11-26T13:55:44.766Z,6.95
2018-11-26T14:00:47.277Z,6.99
2018-11-26T14:05:49.727Z,6.97
2018-11-26T14:10:52.226Z,7.01
2018-11-26T14:15:54.770Z,6.96
2018-11-26T14:20:57.284Z,6.93
2018-11-26T14:25:59.687Z,6.90
2018-11-26T14:31:02.214Z,6.88
2018-11-26T14:36:05.331Z,6.87
2018-11-26T14:41:08.093Z,6.87
2018-11-26T14:46:10.614Z,6.80
2018-11-26T14:51:13.128Z,6.80
2018-11-26T14:56:15.516Z,6.72
2018-11-26T15:01:17.988Z,6.75
2018-11-26T15:06:20.436Z,6.67
2018-11-26T15:11:23.460Z,6.57
2018-11-26T15:16:26.089Z,6.45
2018-11-26T15:21:28.719Z,6.44
2018-11-26T15:26:31.155Z,6.40
2018-11-26T15:31:33.701Z,6.36
2018-11-26T15:36:36.705Z,6.26
2018-11-26T15:41:39.238Z,6.20
2018-11-26T15:46:42.196Z,6.23
2018-11-26T15:51:44.751Z,6.16
2018-11-26T15:56:47.150Z,6.15
2018-11-26T16:01:49.538Z,6.12
2018-11-26T16:06:52.001Z,6.09
2018-11-26T16:11:54.506Z,6.04
2018-11-26T16:16:57.603Z,5.95
2018-11-26T16:22:00.059Z,5.90
2018-11-26T16:27:02.798Z,5.88
2018-11-26T16:32:05.481Z,5.83
2018-11-26T16:37:07.995Z,5.78
2018-11-26T16:42:10.824Z,5.77
2018-11-26T16:47:13.812Z,5.80
2018-11-26T16:52:16.299Z,5.75
2018-11-26T16:57:18.816Z,5.72
2018-11-26T17:02:21.262Z,5.79
2018-11-26T17:07:23.753Z,5.76
2018-11-26T17:12:26.903Z,5.67
2018-11-26T17:17:29.584Z,5.68
2018-11-26T17:22:33.060Z,5.67
2018-11-26T17:27:35.722Z,5.65
2018-11-26T17:32:38.467Z,5.63
2018-11-26T17:37:43.032Z,5.56
2018-11-26T17:42:43.500Z,5.61
2018-11-26T17:47:49.386Z,5.60
2018-11-26T17:52:52.059Z,5.53
2018-11-26T17:57:55.667Z,5.56
2018-11-26T18:02:58.233Z,5.55
2018-11-26T18:08:04.154Z,5.60
2018-11-26T18:13:06.993Z,5.59
2018-11-26T18:18:12.186Z,5.50
2018-11-26T18:23:14.866Z,5.51
2018-11-26T18:28:17.790Z,5.49
2018-11-26T18:33:20.527Z,5.44
2018-11-26T18:38:23.130Z,5.51
2018-11-26T18:43:26.548Z,5.44
2018-11-26T18:48:29.230Z,5.44
2018-11-26T18:53:32.686Z,5.35
2018-11-26T18:58:35.328Z,5.41
2018-11-26T19:03:39.164Z,5.38
2018-11-26T19:08:41.644Z,5.35
2018-11-26T19:13:53.420Z,5.36
2018-11-26T19:18:55.988Z,5.32
2018-11-26T19:23:58.668Z,5.29
2018-11-26T19:29:01.302Z,5.25
2018-11-26T19:34:03.776Z,5.23
2018-11-26T19:39:08.574Z,5.19
2018-11-26T19:44:10.999Z,5.22
2018-11-26T19:49:13.505Z,5.14
2018-11-26T19:54:15.910Z,5.04
2018-11-26T19:59:19.023Z,5.06
2018-11-26T20:04:27.464Z,5.00
2018-11-26T20:09:30.044Z,5.03
2018-11-26T20:14:32.516Z,4.99
2018-11-26T20:19:35.386Z,4.96
2018-11-26T20:24:38.207Z,4.88
2018-11-26T20:29:41.138Z,4.89
2018-11-26T20:34:44.312Z,4.79
2018-11-26T20:39:46.912Z,4.77
2018-11-26T20:44:49.825Z,4.84
2018-11-26T20:49:52.938Z,4.89
2018-11-26T20:54:56.218Z,4.81
2018-11-26T20:59:58.940Z,4.73
2018-11-26T21:05:01.815Z,4.67
2018-11-26T21:10:05.471Z,4.71
2018-11-26T21:15:11.742Z,4.71
2018-11-26T21:20:17.888Z,4.70
2018-11-26T21:25:20.395Z,4.63
2018-11-26T21:30:23.009Z,4.67
2018-11-26T21:35:25.587Z,4.67
2018-11-26T21:40:30.063Z,4.57
2018-11-26T21:45:36.891Z,4.52
2018-11-26T21:50:40.241Z,4.42
2018-11-26T21:55:44.976Z,4.48
2018-11-26T22:00:50.589Z,4.34
2018-11-26T22:05:53.352Z,4.40
2018-11-26T22:10:58.214Z,4.35
2018-11-26T22:16:02.713Z,4.37
2018-11-26T22:21:07.038Z,4.32
2018-11-26T22:26:11.310Z,4.29
2018-11-26T22:31:13.920Z,4.24
2018-11-26T22:36:16.412Z,4.26
2018-11-26T22:41:18.868Z,4.18
2018-11-26T22:46:21.412Z,4.21
2018-11-26T22:51:23.817Z,4.20
2018-11-26T23:01:39.856Z,4.15
2018-11-26T23:06:42.254Z,4.19
2018-11-26T23:11:44.775Z,3.99
2018-11-26T23:16:47.337Z,4.09
2018-11-26T23:21:50.480Z,4.10
2018-11-26T23:26:52.282Z,4.16
2018-11-26T23:31:54.728Z,4.01
2018-11-26T23:36:57.498Z,4.10
2018-11-26T23:42:00.016Z,4.07
2018-11-26T23:47:02.540Z,4.16
2018-11-26T23:52:05.276Z,4.13
2018-11-26T23:57:07.800Z,4.10
